Time;durP1;ratioP1;P1;durP2;ratioP2;P2;SDS_P1;SDS_P2;PMS_P1;PMS_P2;Temp;Humidity;BMP_temperature;BMP_pressure;BME280_temperature;BME280_humidity;BME280_pressure;Samples;Min_cycle;Max_cycle;Signal;HPM_P1;HPM_P2
2022/11/08 00:02:42;;;;;;;35.30;18.23;;;14.70;84.20;;;;;;6123604;23;20184;-85
2022/11/08 00:16:15;;;;;;;43.63;19.13;;;14.80;84.40;;;;;;6125359;23;20173;-85
2022/11/08 00:18:43;;;;;;;35.13;18.03;;;14.80;84.40;;;;;;6125768;23;20200;-86
2022/11/08 00:21:11;;;;;;;39.93;18.50;;;14.70;84.40;;;;;;6124574;23;20169;-85
2022/11/08 00:23:40;;;;;;;40.27;18.50;;;14.80;84.40;;;;;;6125557;23;20173;-85
2022/11/08 00:26:09;;;;;;;37.10;18.00;;;14.80;84.40;;;;;;6124514;23;20173;-85
2022/11/08 00:28:38;;;;;;;44.50;18.43;;;14.80;84.40;;;;;;6122694;23;20286;-85
2022/11/08 00:31:06;;;;;;;31.53;17.53;;;14.70;84.40;;;;;;6121732;23;20612;-83
2022/11/08 00:33:35;;;;;;;36.93;17.90;;;14.80;84.40;;;;;;6122416;23;20173;-84
2022/11/08 00:36:04;;;;;;;40.17;19.20;;;14.80;84.40;;;;;;6121022;23;20679;-84
2022/11/08 00:38:32;;;;;;;36.30;16.57;;;14.80;84.40;;;;;;6122035;23;20193;-85
2022/11/08 00:41:00;;;;;;;35.90;18.57;;;14.80;84.50;;;;;;6123168;23;21030;-85
2022/11/08 00:43:30;;;;;;;36.93;19.03;;;14.70;85.30;;;;;;6121583;23;20170;-85
2022/11/08 00:45:58;;;;;;;34.33;16.77;;;14.80;84.60;;;;;;6120844;23;20205;-85
2022/11/08 00:48:27;;;;;;;35.37;17.63;;;14.70;84.60;;;;;;6123188;23;20177;-86
2022/11/08 00:50:55;;;;;;;38.57;17.17;;;14.70;84.60;;;;;;6123228;23;20505;-86
2022/11/08 00:53:23;;;;;;;32.37;16.63;;;14.70;84.60;;;;;;6123269;23;20204;-86
2022/11/08 00:55:59;;;;;;;36.67;16.30;;;14.70;84.60;;;;;;6123758;23;20209;-85
2022/11/08 00:58:27;;;;;;;34.43;15.67;;;14.70;84.70;;;;;;6121832;23;20231;-84
2022/11/08 01:00:58;;;;;;;32.83;16.60;;;14.70;84.70;;;;;;6121266;23;20187;-85
2022/11/08 01:03:26;;;;;;;40.80;17.37;;;14.70;84.80;;;;;;6120651;23;20273;-85
2022/11/08 01:05:55;;;;;;;35.90;17.63;;;14.70;84.90;;;;;;6118628;23;20235;-86
2022/11/08 01:08:24;;;;;;;34.63;17.00;;;14.60;84.90;;;;;;6119869;23;20177;-85
2022/11/08 01:10:52;;;;;;;36.30;17.40;;;14.60;84.90;;;;;;6119315;23;20174;-85
2022/11/08 01:13:21;;;;;;;38.57;17.50;;;14.60;84.90;;;;;;6123262;23;20173;-84
2022/11/08 01:15:49;;;;;;;41.27;18.63;;;14.50;84.90;;;;;;6118318;23;20181;-85
2022/11/08 01:18:19;;;;;;;34.73;17.70;;;14.50;84.90;;;;;;6122786;23;20260;-85
2022/11/08 01:20:49;;;;;;;35.73;17.97;;;14.50;85.00;;;;;;6123538;23;20236;-85
2022/11/08 01:23:18;;;;;;;37.40;17.90;;;14.40;85.20;;;;;;6122490;23;20177;-86
2022/11/08 01:25:48;;;;;;;37.57;17.40;;;14.40;85.10;;;;;;6119716;23;20173;-83
2022/11/08 01:28:17;;;;;;;41.17;19.67;;;14.40;85.20;;;;;;6122081;23;20805;-86
2022/11/08 01:30:46;;;;;;;33.40;17.97;;;14.40;85.30;;;;;;6120788;23;20232;-80
2022/11/08 01:33:15;;;;;;;35.43;18.67;;;14.30;85.40;;;;;;6122142;23;20655;-84
2022/11/08 01:35:46;;;;;;;42.07;19.27;;;14.30;85.50;;;;;;6122216;23;20609;-84
2022/11/08 01:38:14;;;;;;;45.47;19.73;;;14.30;85.60;;;;;;6122678;23;20288;-85
2022/11/08 01:40:44;;;;;;;44.30;19.00;;;14.30;85.80;;;;;;6121778;23;20231;-82
2022/11/08 01:43:37;;;;;;;33.83;18.23;;;14.30;86.00;;;;;;6123950;23;20169;-84
2022/11/08 01:46:37;;;;;;;39.50;17.93;;;14.20;86.20;;;;;;6120276;23;20213;-80
2022/11/08 01:49:31;;;;;;;41.33;17.83;;;14.20;86.40;;;;;;6124049;23;20682;-84
2022/11/08 01:52:33;;;;;;;31.03;17.33;;;14.10;86.60;;;;;;6121175;23;20607;-84
2022/11/08 01:55:13;;;;;;;39.87;18.10;;;14.10;86.80;;;;;;6122965;23;20622;-82
2022/11/08 01:57:46;;;;;;;34.97;18.03;;;14.00;87.00;;;;;;6123413;23;20244;-84
2022/11/08 02:00:16;;;;;;;37.70;17.90;;;14.00;87.10;;;;;;6122917;23;20193;-85
2022/11/08 02:02:49;;;;;;;35.40;16.43;;;14.00;87.20;;;;;;6122887;23;20728;-85
2022/11/08 02:05:25;;;;;;;33.30;17.27;;;14.00;87.30;;;;;;6123695;23;20487;-85
2022/11/08 02:08:00;;;;;;;31.93;16.13;;;13.90;87.30;;;;;;6123698;23;20161;-81
2022/11/08 02:10:33;;;;;;;35.70;15.53;;;14.00;87.50;;;;;;6119791;23;20634;-85
2022/11/08 02:13:03;;;;;;;27.43;16.17;;;13.90;87.50;;;;;;6122231;23;20189;-85
2022/11/08 02:15:40;;;;;;;29.37;14.13;;;14.00;87.70;;;;;;6070003;23;20173;-86
2022/11/08 02:18:09;;;;;;;29.30;14.93;;;13.90;87.60;;;;;;6122237;23;20173;-86
2022/11/08 02:20:37;;;;;;;32.40;14.53;;;13.90;87.60;;;;;;6122136;23;20538;-85
2022/11/08 02:23:16;;;;;;;31.17;14.83;;;13.90;87.60;;;;;;6121216;23;20177;-85
2022/11/08 02:25:46;;;;;;;28.27;14.30;;;13.90;87.70;;;;;;6121877;23;20221;-85
2022/11/08 02:28:14;;;;;;;32.67;14.23;;;13.90;87.60;;;;;;6121474;23;20231;-84
2022/11/08 02:30:43;;;;;;;29.23;14.73;;;13.90;87.70;;;;;;6122135;23;20172;-85
2022/11/08 02:33:16;;;;;;;29.70;14.53;;;14.00;87.70;;;;;;6120232;23;20203;-85
2022/11/08 02:35:48;;;;;;;30.97;14.00;;;14.00;87.70;;;;;;6121458;23;20224;-85
2022/11/08 02:38:17;;;;;;;32.43;15.37;;;14.00;87.60;;;;;;6123146;23;20162;-84
2022/11/08 02:40:48;;;;;;;26.07;13.27;;;14.00;87.70;;;;;;6119545;23;20204;-85
2022/11/08 02:43:17;;;;;;;34.47;14.10;;;14.00;87.60;;;;;;6119887;23;20184;-85
2022/11/08 02:45:46;;;;;;;30.17;13.57;;;14.00;87.70;;;;;;6119482;23;20176;-85
2022/11/08 02:48:16;;;;;;;26.07;13.47;;;14.00;87.60;;;;;;6120251;23;20637;-85
2022/11/08 02:50:44;;;;;;;24.53;12.53;;;14.00;87.60;;;;;;6119878;23;20591;-85
2022/11/08 02:53:13;;;;;;;26.67;14.10;;;14.00;87.60;;;;;;6120003;23;20180;-84
2022/11/08 02:55:42;;;;;;;28.73;14.47;;;14.00;87.70;;;;;;6120186;23;20177;-85
2022/11/08 02:58:12;;;;;;;29.90;13.63;;;14.00;87.70;;;;;;6120197;23;20565;-83
2022/11/08 03:00:40;;;;;;;32.13;14.73;;;14.00;87.70;;;;;;6121088;23;20236;-84
2022/11/08 03:03:09;;;;;;;30.23;13.53;;;14.00;87.80;;;;;;6118592;23;20225;-82
2022/11/08 03:05:37;;;;;;;27.77;13.40;;;13.90;87.80;;;;;;6121211;23;20173;-85
2022/11/08 03:08:05;;;;;;;28.67;14.50;;;13.90;87.90;;;;;;6122282;23;20188;-85
2022/11/08 03:10:34;;;;;;;27.30;12.83;;;13.90;87.80;;;;;;6120025;23;20880;-83
2022/11/08 03:13:04;;;;;;;33.10;14.90;;;13.90;87.80;;;;;;6121057;23;20240;-84
2022/11/08 03:15:33;;;;;;;28.27;13.87;;;13.90;87.80;;;;;;6120935;23;20572;-85
2022/11/08 03:18:02;;;;;;;31.30;15.40;;;13.90;87.80;;;;;;6123892;23;20208;-85
2022/11/08 03:20:30;;;;;;;27.87;13.50;;;13.90;87.80;;;;;;6119182;23;20733;-83
2022/11/08 03:23:02;;;;;;;32.33;16.03;;;13.90;87.80;;;;;;6120771;23;20252;-85
2022/11/08 03:25:30;;;;;;;27.70;14.30;;;13.90;87.80;;;;;;6120456;23;20541;-84
2022/11/08 03:28:02;;;;;;;32.57;14.87;;;13.90;87.80;;;;;;6120454;23;20173;-85
2022/11/08 03:30:30;;;;;;;28.43;13.77;;;13.90;87.90;;;;;;6118864;23;20611;-83
2022/11/08 03:33:00;;;;;;;30.63;13.63;;;13.90;87.90;;;;;;6122808;23;20173;-85
2022/11/08 03:35:31;;;;;;;27.60;13.07;;;13.90;87.90;;;;;;6118413;23;20180;-83
2022/11/08 03:38:00;;;;;;;29.10;14.07;;;13.90;87.90;;;;;;6121609;23;20224;-86
2022/11/08 03:40:28;;;;;;;28.37;13.83;;;13.90;87.90;;;;;;6121469;23;20204;-84
2022/11/08 03:42:57;;;;;;;29.83;13.40;;;13.90;87.90;;;;;;6120912;23;20360;-85
2022/11/08 03:45:25;;;;;;;25.33;12.27;;;13.90;87.90;;;;;;6117979;23;20173;-84
2022/11/08 03:47:53;;;;;;;30.37;13.00;;;13.90;87.90;;;;;;6122366;23;20228;-84
2022/11/08 03:50:23;;;;;;;27.47;13.10;;;13.90;87.90;;;;;;6120732;23;20554;-85
2022/11/08 03:52:54;;;;;;;21.33;11.53;;;14.00;88.00;;;;;;6121409;23;20165;-85
2022/11/08 03:55:24;;;;;;;29.23;11.70;;;14.00;88.00;;;;;;6120178;23;20603;-85
2022/11/08 03:57:53;;;;;;;23.47;11.93;;;14.00;88.10;;;;;;6120828;23;20197;-85
2022/11/08 04:00:24;;;;;;;23.43;11.57;;;14.00;88.00;;;;;;6120646;23;20197;-85
2022/11/08 04:02:52;;;;;;;21.03;10.97;;;14.00;88.00;;;;;;6119879;23;20165;-85
2022/11/08 04:05:21;;;;;;;23.97;10.87;;;14.00;88.00;;;;;;6120761;23;20229;-80
2022/11/08 04:07:50;;;;;;;24.30;10.90;;;14.00;88.00;;;;;;6121361;23;20232;-84
2022/11/08 04:10:19;;;;;;;21.23;10.77;;;14.00;88.00;;;;;;6123409;23;20176;-83
2022/11/08 04:15:53;;;;;;;19.57;9.73;;;14.00;88.10;;;;;;6002764;23;20224;-85
2022/11/08 04:21:21;;;;;;;20.53;10.97;;;14.00;88.10;;;;;;6073771;23;20651;-83
2022/11/08 04:23:52;;;;;;;24.97;11.83;;;14.00;88.20;;;;;;6122280;23;20161;-85
2022/11/08 04:26:22;;;;;;;23.17;10.73;;;14.00;88.20;;;;;;6123196;23;20177;-85
2022/11/08 04:28:50;;;;;;;23.60;10.97;;;14.00;88.20;;;;;;6123285;23;20244;-85
2022/11/08 04:31:20;;;;;;;25.80;11.87;;;14.00;88.30;;;;;;6121128;23;20177;-84
2022/11/08 04:33:48;;;;;;;26.20;11.97;;;14.00;88.40;;;;;;6121910;23;20174;-82
2022/11/08 04:36:17;;;;;;;21.85;12.05;;;14.00;88.50;;;;;;6122935;23;20704;-81
2022/11/08 04:38:49;;;;;;;27.07;12.67;;;14.00;88.60;;;;;;6121032;23;20201;-84
2022/11/08 04:41:20;;;;;;;22.83;11.60;;;14.00;88.60;;;;;;6122840;23;20185;-85
2022/11/08 04:43:49;;;;;;;21.57;11.23;;;14.00;88.70;;;;;;6118893;23;20162;-85
2022/11/08 04:46:20;;;;;;;22.10;11.10;;;14.00;88.70;;;;;;6119233;23;20191;-85
2022/11/08 04:48:50;;;;;;;24.70;11.73;;;14.00;88.80;;;;;;6121462;23;20169;-86
2022/11/08 04:51:21;;;;;;;20.57;10.90;;;14.00;88.80;;;;;;6121813;23;20576;-84
2022/11/08 04:53:50;;;;;;;22.80;11.70;;;14.00;88.90;;;;;;6122205;23;20169;-83
2022/11/08 04:56:21;;;;;;;24.07;11.13;;;14.00;89.70;;;;;;6119294;23;20228;-85
2022/11/08 04:58:51;;;;;;;26.37;11.57;;;14.00;89.20;;;;;;6120936;23;20280;-85
2022/11/08 05:01:21;;;;;;;24.07;11.17;;;14.00;88.90;;;;;;6120531;23;20197;-85
2022/11/08 05:03:51;;;;;;;30.07;11.93;;;14.00;89.00;;;;;;6121533;23;20966;-84
2022/11/08 05:06:22;;;;;;;23.97;11.97;;;14.00;89.00;;;;;;6122809;23;20196;-85
2022/11/08 05:08:50;;;;;;;22.77;11.30;;;14.00;89.10;;;;;;6122803;23;20681;-85
2022/11/08 05:11:22;;;;;;;22.90;11.43;;;14.00;89.10;;;;;;6124212;23;20180;-86
2022/11/08 05:13:51;;;;;;;28.97;12.27;;;14.00;89.10;;;;;;6122084;23;20166;-81
2022/11/08 05:16:23;;;;;;;29.60;13.23;;;14.00;89.10;;;;;;6122625;23;20173;-83
2022/11/08 05:18:51;;;;;;;23.63;12.70;;;14.00;89.10;;;;;;6121560;23;20603;-83
2022/11/08 05:24:09;;;;;;;26.40;11.40;;;14.00;89.20;;;;;;6123033;23;20662;-80
2022/11/08 05:26:42;;;;;;;23.77;10.60;;;14.00;89.30;;;;;;6119622;23;20201;-82
2022/11/08 05:29:11;;;;;;;28.20;11.93;;;14.10;89.40;;;;;;6119785;23;20810;-83
2022/11/08 05:31:39;;;;;;;23.40;12.23;;;14.10;89.40;;;;;;6120297;23;20177;-82
2022/11/08 05:34:07;;;;;;;29.90;11.77;;;14.00;89.30;;;;;;6122928;23;20245;-80
2022/11/08 05:36:36;;;;;;;23.07;11.57;;;14.00;89.40;;;;;;6122790;23;20169;-84
2022/11/08 05:39:04;;;;;;;24.80;12.03;;;14.00;89.40;;;;;;6123137;23;20206;-83
2022/11/08 05:41:32;;;;;;;24.43;11.07;;;14.00;89.40;;;;;;6123199;23;20256;-84
2022/11/08 05:44:02;;;;;;;21.53;11.33;;;14.00;89.40;;;;;;6122986;23;20173;-83
2022/11/08 05:46:30;;;;;;;26.47;11.77;;;14.00;89.50;;;;;;6122256;23;20178;-82
2022/11/08 05:48:59;;;;;;;27.43;11.90;;;14.00;89.50;;;;;;6124955;23;20169;-83
2022/11/08 05:51:27;;;;;;;24.33;11.40;;;14.00;89.60;;;;;;6122876;23;20177;-85
2022/11/08 05:53:55;;;;;;;23.70;11.63;;;14.00;89.60;;;;;;6124623;23;20228;-84
2022/11/08 05:56:23;;;;;;;28.13;11.90;;;14.00;89.50;;;;;;6123870;23;20177;-84
2022/11/08 05:58:52;;;;;;;24.40;10.50;;;14.00;89.50;;;;;;6124725;23;20742;-84
2022/11/08 06:01:21;;;;;;;24.23;10.83;;;14.00;89.50;;;;;;6123464;23;20201;-86
2022/11/08 06:03:50;;;;;;;25.27;11.90;;;14.10;89.60;;;;;;6125189;23;20169;-83
2022/11/08 06:06:21;;;;;;;27.07;11.13;;;14.10;89.50;;;;;;6123488;23;20228;-85
2022/11/08 06:08:50;;;;;;;26.03;11.63;;;14.10;89.40;;;;;;6124591;23;20229;-84
2022/11/08 06:11:23;;;;;;;24.00;11.53;;;14.10;89.50;;;;;;6122151;23;20157;-85
2022/11/08 06:13:52;;;;;;;28.40;11.90;;;14.10;89.40;;;;;;6122878;23;20169;-86
2022/11/08 06:16:23;;;;;;;25.33;11.40;;;14.10;89.40;;;;;;6122080;23;20173;-80
2022/11/08 06:18:52;;;;;;;29.10;11.63;;;14.10;89.40;;;;;;6123467;23;20170;-80
2022/11/08 06:21:21;;;;;;;27.60;11.93;;;14.10;89.50;;;;;;6125300;23;20251;-83
2022/11/08 06:23:53;;;;;;;24.33;11.97;;;14.10;89.50;;;;;;6125838;23;20476;-84
2022/11/08 06:26:21;;;;;;;28.33;11.23;;;14.20;89.50;;;;;;6126139;23;20221;-78
2022/11/08 06:28:50;;;;;;;24.40;11.20;;;14.20;89.60;;;;;;6125094;23;20511;-76
2022/11/08 06:31:18;;;;;;;33.50;10.87;;;14.20;89.60;;;;;;6121766;23;20180;-83
2022/11/08 06:33:49;;;;;;;22.03;11.03;;;14.20;89.60;;;;;;6124851;23;20239;-80
2022/11/08 06:36:17;;;;;;;27.37;12.63;;;14.20;89.70;;;;;;6124268;23;20185;-82
2022/11/08 06:38:45;;;;;;;22.03;11.77;;;14.20;89.70;;;;;;6123013;23;20635;-78
2022/11/08 06:41:18;;;;;;;25.87;9.83;;;14.20;89.80;;;;;;6121004;23;20200;-82
2022/11/08 06:43:47;;;;;;;22.60;11.27;;;14.20;89.80;;;;;;6118645;23;20249;-81
2022/11/08 06:46:15;;;;;;;24.23;11.17;;;14.20;89.80;;;;;;6122562;23;20173;-80
2022/11/08 06:48:44;;;;;;;19.60;10.93;;;14.20;89.80;;;;;;6127192;23;20224;-80
2022/11/08 06:51:14;;;;;;;19.30;11.07;;;14.30;89.80;;;;;;6122527;23;20228;-83
2022/11/08 06:53:43;;;;;;;27.83;11.73;;;14.30;89.80;;;;;;6123544;23;20161;-85
2022/11/08 06:56:12;;;;;;;21.30;10.90;;;14.30;89.80;;;;;;6120888;23;20173;-79
2022/11/08 06:58:40;;;;;;;20.43;10.83;;;14.30;89.80;;;;;;6122333;23;20267;-84
2022/11/08 07:01:10;;;;;;;20.73;11.87;;;14.30;89.80;;;;;;6122927;23;20204;-85
2022/11/08 07:03:38;;;;;;;29.27;12.27;;;14.30;89.80;;;;;;6121762;23;20204;-83
2022/11/08 07:06:08;;;;;;;24.00;11.80;;;14.30;90.00;;;;;;6121786;23;20653;-80
2022/11/08 07:08:38;;;;;;;27.17;12.03;;;14.30;90.10;;;;;;6126321;23;20192;-80
2022/11/08 07:11:06;;;;;;;32.70;11.63;;;14.30;90.10;;;;;;6124403;23;20240;-84
2022/11/08 07:13:35;;;;;;;24.17;11.60;;;14.30;90.10;;;;;;6126318;23;20177;-82
2022/11/08 07:16:03;;;;;;;22.60;12.07;;;14.40;90.10;;;;;;6122989;23;20177;-80
2022/11/08 07:18:31;;;;;;;25.13;12.33;;;14.40;90.10;;;;;;6124662;23;20619;-81
2022/11/08 07:21:00;;;;;;;29.03;12.27;;;14.50;90.20;;;;;;6122895;23;20176;-81
2022/11/08 07:23:29;;;;;;;21.77;11.83;;;14.50;90.20;;;;;;6121496;23;20635;-82
2022/11/08 07:26:01;;;;;;;20.27;11.27;;;14.50;90.20;;;;;;6123463;23;20709;-79
2022/11/08 07:28:30;;;;;;;20.63;10.13;;;14.60;90.30;;;;;;6122410;23;20163;-79
2022/11/08 07:31:00;;;;;;;20.97;10.80;;;14.60;90.30;;;;;;6121362;23;20236;-78
2022/11/08 07:33:29;;;;;;;23.57;11.17;;;14.60;90.20;;;;;;6123701;23;20549;-83
2022/11/08 07:35:57;;;;;;;30.47;12.07;;;14.70;90.20;;;;;;6122839;23;20177;-78
2022/11/08 07:38:26;;;;;;;22.50;11.30;;;14.70;90.20;;;;;;6123705;23;20169;-79
2022/11/08 07:40:58;;;;;;;20.10;10.57;;;14.80;90.20;;;;;;6122102;23;20192;-80
2022/11/08 07:43:27;;;;;;;24.83;10.87;;;14.80;90.10;;;;;;6122288;23;20536;-80
2022/11/08 07:45:57;;;;;;;23.20;10.90;;;14.90;90.00;;;;;;6125597;23;20176;-78
2022/11/08 07:48:27;;;;;;;21.60;11.07;;;15.00;90.00;;;;;;6125857;23;20180;-80
2022/11/08 07:50:55;;;;;;;22.67;11.53;;;15.10;89.90;;;;;;6125710;23;20184;-80
2022/11/08 07:53:24;;;;;;;27.03;12.10;;;15.10;89.90;;;;;;6123496;23;20173;-79
2022/11/08 07:55:53;;;;;;;25.67;11.67;;;15.20;89.80;;;;;;6123321;23;20169;-78
2022/11/08 07:58:23;;;;;;;21.10;11.13;;;15.30;89.80;;;;;;6124634;23;20193;-85
2022/11/08 08:00:52;;;;;;;22.67;11.40;;;15.40;89.70;;;;;;6123689;23;20181;-84
2022/11/08 08:03:20;;;;;;;24.57;11.07;;;15.40;89.50;;;;;;6124891;23;20204;-78
2022/11/08 08:05:53;;;;;;;26.77;11.80;;;15.50;89.30;;;;;;6126291;23;20173;-79
2022/11/08 08:08:28;;;;;;;23.53;11.47;;;15.60;89.00;;;;;;6124319;23;20213;-80
2022/11/08 08:11:00;;;;;;;26.93;10.53;;;15.60;88.80;;;;;;6074097;23;20365;-83
2022/11/08 08:13:30;;;;;;;19.67;10.20;;;15.70;88.80;;;;;;6122478;23;20223;-85
2022/11/08 08:16:00;;;;;;;22.17;10.53;;;15.70;88.50;;;;;;6123560;23;20711;-80
2022/11/08 08:18:29;;;;;;;20.20;11.73;;;15.70;88.20;;;;;;6122919;23;20175;-79
2022/11/08 08:20:58;;;;;;;24.03;10.43;;;15.80;88.00;;;;;;6123847;23;20180;-82
2022/11/08 08:23:26;;;;;;;21.93;11.87;;;15.80;87.80;;;;;;6124024;23;20253;-81
2022/11/08 08:25:55;;;;;;;20.97;10.57;;;15.80;87.70;;;;;;6121839;23;20177;-80
2022/11/08 08:28:23;;;;;;;22.33;12.23;;;15.90;87.80;;;;;;6125196;23;20173;-79
2022/11/08 08:30:53;;;;;;;22.20;11.47;;;15.90;87.70;;;;;;6125537;23;20232;-82
2022/11/08 08:33:21;;;;;;;22.63;10.20;;;15.90;87.70;;;;;;6127137;23;20220;-86
2022/11/08 08:35:56;;;;;;;22.37;10.03;;;15.90;87.60;;;;;;6123082;23;20157;-85
2022/11/08 08:38:25;;;;;;;20.87;10.87;;;16.00;87.70;;;;;;6125268;23;20703;-82
2022/11/08 08:40:53;;;;;;;20.10;11.37;;;16.10;87.50;;;;;;6122355;23;20173;-83
2022/11/08 08:43:21;;;;;;;21.27;10.87;;;16.20;87.60;;;;;;6124560;23;20233;-87
2022/11/08 08:45:50;;;;;;;22.77;10.57;;;16.30;87.40;;;;;;6122762;23;20264;-77
2022/11/08 08:48:20;;;;;;;23.70;10.60;;;16.40;87.40;;;;;;6121925;23;20227;-82
2022/11/08 08:50:48;;;;;;;23.67;10.57;;;16.50;87.30;;;;;;6121676;23;20205;-81
2022/11/08 08:53:16;;;;;;;18.27;9.37;;;16.70;87.40;;;;;;6122829;23;20543;-82
2022/11/08 08:55:46;;;;;;;25.37;10.00;;;16.80;87.20;;;;;;6120859;23;20228;-79
2022/11/08 08:58:15;;;;;;;18.30;9.37;;;16.90;86.60;;;;;;6122846;23;20193;-76
2022/11/08 09:00:43;;;;;;;21.63;10.03;;;17.10;86.70;;;;;;6122387;23;20169;-82
2022/11/08 09:03:34;;;;;;;19.60;9.50;;;17.30;86.00;;;;;;6119839;23;20197;-79
2022/11/08 09:06:02;;;;;;;20.13;9.20;;;17.40;85.60;;;;;;6123269;23;20544;-80
2022/11/08 09:08:31;;;;;;;20.67;8.90;;;17.50;85.10;;;;;;6122648;23;20228;-80
2022/11/08 09:11:00;;;;;;;18.13;9.57;;;17.60;84.10;;;;;;6121003;23;20181;-80
2022/11/08 09:13:30;;;;;;;25.10;10.03;;;17.80;83.60;;;;;;6120254;23;20231;-82
2022/11/08 09:16:00;;;;;;;20.70;9.07;;;17.90;83.00;;;;;;6121681;23;20181;-82
2022/11/08 09:18:29;;;;;;;17.10;8.43;;;18.00;82.20;;;;;;6122983;23;20243;-80
2022/11/08 09:20:59;;;;;;;14.50;9.00;;;18.10;81.90;;;;;;6121333;23;20553;-81
2022/11/08 09:23:27;;;;;;;18.07;9.43;;;18.30;81.50;;;;;;6122053;23;20185;-82
2022/11/08 09:25:59;;;;;;;18.43;9.93;;;18.40;81.40;;;;;;6120374;23;20646;-82
2022/11/08 09:28:27;;;;;;;14.77;8.50;;;18.60;81.20;;;;;;6122527;23;20180;-83
2022/11/08 09:31:01;;;;;;;16.50;8.70;;;18.70;81.60;;;;;;6120917;23;20161;-79
2022/11/08 09:33:29;;;;;;;15.33;8.60;;;18.90;81.60;;;;;;6120841;23;20232;-80
2022/11/08 09:36:01;;;;;;;19.10;9.07;;;19.00;81.00;;;;;;6119626;23;20169;-82
2022/11/08 09:38:30;;;;;;;20.53;9.67;;;19.10;79.10;;;;;;6124180;23;20225;-80
2022/11/08 09:41:43;;;;;;;16.97;9.83;;;19.20;78.90;;;;;;6124203;23;20185;-86
2022/11/08 09:44:47;;;;;;;22.00;9.33;;;19.20;77.90;;;;;;5974133;24;20235;-85
2022/11/08 09:47:20;;;;;;;18.50;9.43;;;19.20;77.60;;;;;;6126708;23;20246;-80
2022/11/08 09:49:59;;;;;;;15.10;8.60;;;19.30;77.50;;;;;;6124200;23;20223;-83
2022/11/08 09:52:30;;;;;;;17.83;8.77;;;19.40;77.70;;;;;;6124491;23;20161;-85
2022/11/08 09:55:14;;;;;;;19.33;9.47;;;19.40;77.20;;;;;;6125739;23;20162;-81
2022/11/08 09:57:55;;;;;;;17.75;9.10;;;19.40;76.90;;;;;;6123557;23;20197;-80
2022/11/08 10:00:24;;;;;;;19.80;8.63;;;19.40;76.30;;;;;;6122232;23;20184;-85
2022/11/08 10:02:52;;;;;;;17.47;8.20;;;19.40;76.30;;;;;;6122835;23;20501;-86
2022/11/08 10:05:21;;;;;;;17.27;9.40;;;19.50;76.40;;;;;;6120480;23;20757;-84
2022/11/08 10:07:57;;;;;;;21.73;9.83;;;19.40;76.30;;;;;;6125265;23;20619;-87
2022/11/08 10:10:54;;;;;;;22.37;10.13;;;19.50;76.30;;;;;;6124463;23;20209;-86
2022/11/08 10:13:30;;;;;;;20.33;9.67;;;19.50;76.60;;;;;;6122531;23;20162;-83
2022/11/08 10:16:06;;;;;;;19.27;10.50;;;19.50;76.30;;;;;;6122251;23;20168;-83
2022/11/08 10:18:58;;;;;;;24.17;10.03;;;19.50;76.20;;;;;;6123541;23;20690;-87
2022/11/08 10:42:37;;;;;;;18.25;10.23;;;19.00;76.50;;;;;;6203995;22;1397351;-81
2022/11/08 10:45:08;;;;;;;16.17;9.13;;;19.20;78.00;;;;;;6250698;23;20154;-85
2022/11/08 10:47:38;;;;;;;18.67;9.30;;;19.20;77.90;;;;;;6253185;23;20232;-88
2022/11/08 10:50:14;;;;;;;17.80;9.30;;;19.20;78.00;;;;;;6252894;23;20212;-80
2022/11/08 10:52:46;;;;;;;28.63;9.70;;;19.20;77.70;;;;;;6255567;23;20158;-85
2022/11/08 10:55:27;;;;;;;15.10;8.60;;;19.30;77.60;;;;;;6254340;23;20225;-81
2022/11/08 10:57:57;;;;;;;20.23;8.85;;;19.30;77.50;;;;;;6251688;23;20455;-83
2022/11/08 11:00:30;;;;;;;17.50;9.33;;;19.40;77.50;;;;;;6253942;23;20182;-86
2022/11/08 11:03:00;;;;;;;15.13;8.30;;;19.40;77.60;;;;;;6251887;23;20174;-83
2022/11/08 11:05:34;;;;;;;21.23;8.27;;;19.40;77.50;;;;;;6253571;23;20158;-86
2022/11/08 11:08:15;;;;;;;20.20;8.60;;;19.40;77.30;;;;;;6254754;23;20204;-81
2022/11/08 11:10:45;;;;;;;19.73;9.50;;;19.40;77.50;;;;;;6254898;23;20158;-84
2022/11/08 11:13:21;;;;;;;17.27;8.97;;;19.40;77.30;;;;;;6253336;23;20165;-85
2022/11/08 11:15:51;;;;;;;34.70;13.13;;;19.40;77.10;;;;;;6258336;23;20602;-84
2022/11/08 11:18:26;;;;;;;24.67;9.63;;;19.40;76.90;;;;;;6257245;23;20186;-85
2022/11/08 11:21:00;;;;;;;16.07;8.60;;;19.40;76.90;;;;;;6254531;23;20185;-84
2022/11/08 11:23:38;;;;;;;17.23;9.03;;;19.50;77.00;;;;;;6253464;23;20157;-84
2022/11/08 11:26:16;;;;;;;17.27;8.70;;;19.40;76.70;;;;;;6254620;23;20212;-83
2022/11/08 11:31:48;;;;;;;18.57;8.90;;;19.50;77.00;;;;;;5108726;27;20562;-83
2022/11/08 11:34:42;;;;;;;20.10;9.33;;;19.50;76.90;;;;;;5090584;28;20185;-83
2022/11/08 11:37:25;;;;;;;19.23;9.93;;;19.60;76.90;;;;;;5075099;28;20190;-82
2022/11/08 11:40:14;;;;;;;19.23;10.90;;;19.50;76.60;;;;;;5088160;28;20230;-80
2022/11/08 11:42:47;;;;;;;20.73;8.67;;;19.50;76.40;;;;;;5088542;28;20668;-82
2022/11/08 11:45:23;;;;;;;19.23;9.07;;;19.50;76.40;;;;;;5087737;28;20553;-83
2022/11/08 11:47:55;;;;;;;17.00;8.97;;;19.50;76.40;;;;;;5088614;28;20194;-86
2022/11/08 11:50:33;;;;;;;18.03;9.27;;;19.60;76.60;;;;;;5086865;28;20212;-81
2022/11/08 11:53:04;;;;;;;18.37;8.23;;;19.60;76.70;;;;;;5069174;28;20863;-81
2022/11/08 11:56:08;;;;;;;18.20;7.70;;;19.60;76.40;;;;;;5077248;28;20251;-83
2022/11/08 11:59:13;;;;;;;19.87;8.67;;;19.60;76.40;;;;;;5083712;28;20243;-83
2022/11/08 12:01:54;;;;;;;30.73;14.57;;;19.70;76.50;;;;;;5084455;28;20468;-84
2022/11/08 12:04:40;;;;;;;22.95;8.75;;;19.70;76.30;;;;;;5085540;28;20187;-82
2022/11/08 12:07:14;;;;;;;21.10;8.32;;;19.70;76.10;;;;;;5085387;28;20186;-79
2022/11/08 12:09:55;;;;;;;18.73;7.47;;;19.60;75.90;;;;;;5082749;28;20189;-83
2022/11/08 12:12:33;;;;;;;21.37;11.57;;;19.70;76.20;;;;;;5084887;28;20204;-80
2022/11/08 12:15:07;;;;;;;19.30;10.57;;;19.70;76.10;;;;;;5087009;28;20181;-83
2022/11/08 12:17:54;;;;;;;22.57;9.77;;;19.70;76.10;;;;;;5086884;28;20221;-81
2022/11/08 12:20:34;;;;;;;17.13;8.57;;;19.70;76.20;;;;;;5077931;28;20186;-82
2022/11/08 12:23:23;;;;;;;29.00;11.90;;;19.70;76.20;;;;;;5090712;28;20194;-81
2022/11/08 12:26:01;;;;;;;19.02;8.35;;;19.70;76.30;;;;;;5082625;28;20198;-82
2022/11/08 12:28:46;;;;;;;15.57;7.78;;;19.70;76.00;;;;;;5086751;28;20665;-83
2022/11/08 12:31:23;;;;;;;17.60;9.17;;;19.70;76.00;;;;;;5085173;28;20229;-82
2022/11/08 12:34:05;;;;;;;15.15;8.30;;;19.70;75.90;;;;;;5089726;28;20194;-83
2022/11/08 12:36:43;;;;;;;13.57;8.20;;;19.70;75.90;;;;;;5092079;28;20194;-83
2022/11/08 12:39:22;;;;;;;18.60;7.88;;;19.70;75.90;;;;;;5093702;28;20544;-82
2022/11/08 12:42:03;;;;;;;18.13;8.35;;;19.60;76.00;;;;;;5074850;28;20191;-80
2022/11/08 12:44:56;;;;;;;23.27;8.43;;;19.60;75.80;;;;;;5065085;28;20268;-81
2022/11/08 12:47:33;;;;;;;21.67;10.20;;;19.60;75.70;;;;;;5082709;28;20537;-81
2022/11/08 12:50:16;;;;;;;19.73;8.13;;;19.60;76.00;;;;;;5077639;28;20240;-79
2022/11/08 12:53:08;;;;;;;19.37;9.93;;;19.60;76.10;;;;;;5062011;28;20191;-77
2022/11/08 12:55:42;;;;;;;18.23;9.27;;;19.60;76.00;;;;;;5036194;28;20267;-80
2022/11/08 12:58:25;;;;;;;20.37;8.80;;;19.60;76.00;;;;;;5078841;28;20212;-79
2022/11/08 13:01:05;;;;;;;22.43;10.30;;;19.60;76.10;;;;;;5074465;28;20203;-78
2022/11/08 13:04:03;;;;;;;22.47;9.67;;;19.60;76.30;;;;;;5073099;28;20198;-82
2022/11/08 13:06:42;;;;;;;25.67;10.45;;;19.60;76.40;;;;;;5039684;28;20201;-84
2022/11/08 13:09:21;;;;;;;29.17;10.73;;;19.60;76.50;;;;;;5076393;28;20189;-81
2022/11/08 13:11:56;;;;;;;27.33;10.53;;;19.60;76.60;;;;;;5074571;28;20214;-81
2022/11/08 13:14:25;;;;;;;17.23;8.93;;;19.50;76.80;;;;;;5070998;28;20190;-85
2022/11/08 13:17:18;;;;;;;24.43;9.80;;;19.50;76.80;;;;;;5077702;28;20243;-81
2022/11/08 13:19:58;;;;;;;19.80;8.90;;;19.50;76.90;;;;;;5084472;28;20208;-83
2022/11/08 13:22:43;;;;;;;18.87;8.37;;;19.50;77.00;;;;;;5074071;28;20217;-80
2022/11/08 13:25:34;;;;;;;19.03;9.60;;;19.40;77.10;;;;;;5082709;28;20191;-84
2022/11/08 13:28:28;;;;;;;21.97;8.20;;;19.40;77.20;;;;;;5072943;28;20195;-84
2022/11/08 13:31:01;;;;;;;26.43;9.60;;;19.30;77.20;;;;;;5076942;28;20960;-81
2022/11/08 13:33:32;;;;;;;23.03;10.47;;;19.30;77.30;;;;;;5082047;28;20216;-81
2022/11/08 13:36:15;;;;;;;21.00;8.77;;;19.30;77.40;;;;;;5078356;28;20654;-80
2022/11/08 13:38:56;;;;;;;20.83;8.97;;;19.30;77.50;;;;;;5070521;28;20182;-80
2022/11/08 13:41:26;;;;;;;19.13;9.30;;;19.30;77.60;;;;;;5073180;28;20194;-80
2022/11/08 13:43:55;;;;;;;23.07;10.27;;;19.30;77.60;;;;;;5078458;28;20656;-80